createdAt,value
2023-02-23T00:08:45.967Z,97121.66
2023-02-23T00:19:46.458Z,97130.16
2023-02-23T00:23:10.064Z,97129.41
2023-02-23T00:45:08.095Z,97131.91
2023-02-23T00:51:19.497Z,97129.38
2023-02-23T00:57:22.293Z,97135.31
2023-02-23T01:12:20.426Z,97116.50
2023-02-23T01:19:02.317Z,97122.31
2023-02-23T01:22:11.167Z,97118.66
2023-02-23T01:32:04.497Z,97115.91
2023-02-23T02:01:23.277Z,97112.50
2023-02-23T02:04:00.697Z,97110.00
2023-02-23T02:22:09.623Z,97130.91
2023-02-23T02:24:49.396Z,97121.88
2023-02-23T02:28:14.694Z,97124.38
2023-02-23T02:31:03.591Z,97127.47
2023-02-23T02:35:07.684Z,97129.25
2023-02-23T02:38:41.045Z,97127.56
2023-02-23T02:41:23.289Z,97125.47
2023-02-23T02:44:30.014Z,97118.53
2023-02-23T02:47:23.620Z,97121.06
2023-02-23T03:09:29.195Z,97110.81
2023-02-23T03:17:16.904Z,97131.63
2023-02-23T03:20:42.956Z,97136.41
2023-02-23T03:23:46.400Z,97140.75
2023-02-23T03:27:24.705Z,97140.59
2023-02-23T03:30:52.533Z,97151.97
2023-02-23T03:49:03.119Z,97149.88
2023-02-23T03:52:30.975Z,97147.44
2023-02-23T04:16:07.529Z,97155.78
2023-02-23T04:19:14.078Z,97161.19
2023-02-23T04:21:44.297Z,97157.28
2023-02-23T04:29:06.041Z,97159.84
2023-02-23T04:32:34.989Z,97150.63
2023-02-23T04:38:20.585Z,97156.72
2023-02-23T04:41:25.683Z,97164.06
2023-02-23T04:43:52.571Z,97153.47
2023-02-23T04:46:19.337Z,97158.56
2023-02-23T04:48:46.935Z,97166.94
2023-02-23T04:51:37.027Z,97160.06
2023-02-23T04:54:33.543Z,97163.66
2023-02-23T04:57:21.045Z,97159.19
2023-02-23T04:59:51.796Z,97155.81
2023-02-23T05:02:28.739Z,97162.50
2023-02-23T05:04:58.299Z,97164.50
2023-02-23T05:07:25.798Z,97165.88
2023-02-23T05:10:07.274Z,97174.56
2023-02-23T05:12:45.149Z,97178.00
2023-02-23T05:15:12.338Z,97181.94
2023-02-23T05:18:01.572Z,97180.34
2023-02-23T05:21:11.422Z,97186.59
2023-02-23T05:24:02.706Z,97193.28
2023-02-23T05:27:53.475Z,97191.78
2023-02-23T05:30:21.050Z,97191.88
2023-02-23T05:35:45.847Z,97199.97
2023-02-23T05:38:12.958Z,97209.88
2023-02-23T05:40:49.603Z,97200.69
2023-02-23T05:43:32.393Z,97214.72
2023-02-23T05:46:23.809Z,97214.31
2023-02-23T05:49:23.307Z,97224.72
2023-02-23T05:51:56.379Z,97229.41
2023-02-23T05:54:30.116Z,97225.66
2023-02-23T05:57:25.682Z,97235.28
2023-02-23T05:59:55.685Z,97240.81
2023-02-23T06:02:26.385Z,97242.84
2023-02-23T06:04:57.313Z,97238.47
2023-02-23T06:07:55.073Z,97239.72
2023-02-23T06:10:13.169Z,97237.28
2023-02-23T06:12:46.456Z,97241.44
2023-02-23T06:15:14.491Z,97238.50
2023-02-23T06:24:45.924Z,97243.72
2023-02-23T06:27:28.242Z,97248.19
2023-02-23T06:30:26.044Z,97239.38
2023-02-23T06:33:16.525Z,97258.72
2023-02-23T06:35:47.433Z,97256.13
2023-02-23T06:38:18.597Z,97265.78
2023-02-23T06:40:46.073Z,97253.91
2023-02-23T06:43:13.383Z,97262.03
2023-02-23T06:46:13.890Z,97256.81
2023-02-23T06:48:41.497Z,97257.50
2023-02-23T06:51:14.777Z,97252.06
2023-02-23T06:53:42.518Z,97250.47
2023-02-23T06:56:18.645Z,97253.78
2023-02-23T06:58:49.084Z,97247.88
2023-02-23T07:01:21.683Z,97256.00
2023-02-23T07:03:54.736Z,97254.78
2023-02-23T07:06:48.698Z,97247.41
2023-02-23T07:13:31.248Z,97253.28
2023-02-23T07:16:01.420Z,97253.44
2023-02-23T07:18:28.271Z,97251.63
2023-02-23T07:20:55.011Z,97252.97
2023-02-23T07:23:22.726Z,97244.28
2023-02-23T07:25:54.288Z,97245.50
2023-02-23T07:28:21.527Z,97246.16
2023-02-23T07:30:51.548Z,97246.84
2023-02-23T07:33:24.762Z,97253.22
2023-02-23T07:35:54.699Z,97255.16
2023-02-23T07:38:21.626Z,97253.38
2023-02-23T07:40:50.769Z,97252.09
2023-02-23T07:43:18.028Z,97255.50
2023-02-23T07:45:48.283Z,97254.84
2023-02-23T07:48:26.707Z,97253.56
2023-02-23T07:50:54.209Z,97261.25
2023-02-23T07:53:30.817Z,97255.50
2023-02-23T07:56:02.213Z,97250.59
2023-02-23T07:58:31.114Z,97247.34
2023-02-23T08:00:58.306Z,97244.63
2023-02-23T08:03:50.006Z,97240.50
2023-02-23T08:06:18.619Z,97256.00
2023-02-23T08:08:55.770Z,97245.19
2023-02-23T08:11:29.367Z,97251.03
2023-02-23T08:14:00.464Z,97253.75
2023-02-23T08:16:32.631Z,97245.41
2023-02-23T08:19:03.937Z,97250.38
2023-02-23T08:21:32.108Z,97245.31
2023-02-23T08:24:02.289Z,97233.03
2023-02-23T08:26:29.913Z,97237.91
2023-02-23T08:29:17.220Z,97243.34
2023-02-23T08:31:50.545Z,97235.22
2023-02-23T08:34:19.000Z,97232.59
2023-02-23T08:36:46.399Z,97237.81
2023-02-23T08:39:32.922Z,97236.88
2023-02-23T08:42:00.844Z,97235.19
2023-02-23T08:44:28.330Z,97229.56
2023-02-23T08:47:08.090Z,97230.22
2023-02-23T08:49:35.138Z,97234.38
2023-02-23T08:52:11.444Z,97226.28
2023-02-23T08:54:41.740Z,97229.69
2023-02-23T08:57:12.676Z,97223.41
2023-02-23T08:59:41.876Z,97225.97
2023-02-23T09:02:13.162Z,97212.75
2023-02-23T09:04:44.513Z,97223.13
2023-02-23T09:07:53.948Z,97226.44
2023-02-23T09:10:27.747Z,97218.72
2023-02-23T09:12:55.765Z,97218.97
2023-02-23T09:15:22.934Z,97217.97
2023-02-23T09:18:13.821Z,97207.38
2023-02-23T09:20:47.892Z,97212.69
2023-02-23T09:23:15.031Z,97206.06
2023-02-23T09:25:43.818Z,97206.22
2023-02-23T09:28:19.830Z,97213.38
2023-02-23T09:30:47.877Z,97207.78
2023-02-23T09:33:18.245Z,97205.81
2023-02-23T09:35:45.085Z,97206.13
2023-02-23T09:38:11.999Z,97209.94
2023-02-23T09:40:50.017Z,97206.16
2023-02-23T09:43:25.756Z,97197.88
2023-02-23T09:46:23.902Z,97206.44
2023-02-23T09:49:06.024Z,97201.47
2023-02-23T09:51:42.415Z,97205.81
2023-02-23T09:54:17.822Z,97195.03
2023-02-23T09:56:48.662Z,97193.22
2023-02-23T09:59:22.512Z,97187.75
2023-02-23T10:01:58.992Z,97196.84
2023-02-23T10:04:48.089Z,97191.56
2023-02-23T10:07:21.296Z,97187.94
2023-02-23T10:10:13.199Z,97191.72
2023-02-23T10:16:05.815Z,97191.38
2023-02-23T10:19:19.017Z,97189.25
2023-02-23T10:21:56.551Z,97187.59
2023-02-23T10:24:33.411Z,97185.59
2023-02-23T10:27:07.595Z,97178.44
2023-02-23T10:29:51.615Z,97178.56
2023-02-23T10:32:36.996Z,97168.91
2023-02-23T10:35:11.528Z,97160.56
2023-02-23T10:37:40.939Z,97159.91
2023-02-23T10:40:21.042Z,97163.34
2023-02-23T10:42:48.501Z,97163.69
2023-02-23T10:45:24.746Z,97156.38
2023-02-23T10:47:59.764Z,97161.91
2023-02-23T10:50:29.047Z,97144.06
2023-02-23T10:53:03.445Z,97151.31
2023-02-23T10:55:32.474Z,97149.03
2023-02-23T10:58:08.516Z,97155.97
2023-02-23T11:00:38.793Z,97145.13
2023-02-23T11:03:22.062Z,97148.59
2023-02-23T11:05:53.251Z,97149.41
2023-02-23T11:08:31.057Z,97137.44
2023-02-23T11:11:16.110Z,97143.28
2023-02-23T11:16:39.777Z,97136.56
2023-02-23T11:19:37.310Z,97135.81
2023-02-23T11:22:08.513Z,97133.63
2023-02-23T11:24:58.373Z,97138.59
2023-02-23T11:27:29.608Z,97135.94
2023-02-23T11:30:01.455Z,97136.16
2023-02-23T11:32:44.446Z,97129.34
2023-02-23T11:35:36.525Z,97124.22
2023-02-23T11:38:16.113Z,97136.78
2023-02-23T11:43:55.703Z,97130.97
2023-02-23T11:46:47.310Z,97121.78
2023-02-23T11:49:21.245Z,97109.88
2023-02-23T11:51:56.386Z,97137.41
2023-02-23T11:54:35.199Z,97136.88
2023-02-23T12:00:01.908Z,97134.78
2023-02-23T12:03:03.106Z,97106.50
2023-02-23T12:09:00.389Z,97155.91
2023-02-23T12:11:35.239Z,97126.47
2023-02-23T12:14:23.518Z,97146.50
2023-02-23T12:16:57.746Z,97146.19
2023-02-23T12:19:31.121Z,97134.09
2023-02-23T12:22:14.359Z,97143.84
2023-02-23T12:25:20.665Z,97139.53
2023-02-23T12:27:57.259Z,97141.38
2023-02-23T12:30:46.625Z,97158.25
2023-02-23T12:33:46.445Z,97159.78
2023-02-23T12:38:27.975Z,97163.38
2023-02-23T12:40:37.120Z,97149.13
2023-02-23T12:43:29.697Z,97159.75
2023-02-23T12:46:40.756Z,97151.13
2023-02-23T12:49:27.871Z,97168.72
2023-02-23T12:52:16.679Z,97165.56
2023-02-23T12:54:48.634Z,97164.75
2023-02-23T12:57:34.965Z,97165.56
2023-02-23T13:00:31.368Z,97168.03
2023-02-23T13:03:33.664Z,97171.38
2023-02-23T13:06:25.686Z,97173.66
2023-02-23T13:09:00.781Z,97177.97
2023-02-23T13:11:47.883Z,97176.28
2023-02-23T13:14:33.808Z,97173.31
2023-02-23T13:17:23.207Z,97175.97
2023-02-23T13:20:02.241Z,97169.00
2023-02-23T13:22:58.633Z,97174.97
2023-02-23T13:25:39.636Z,97173.97
2023-02-23T13:28:16.520Z,97175.13
2023-02-23T13:30:48.225Z,97171.50
2023-02-23T13:33:44.119Z,97174.31
2023-02-23T13:36:32.241Z,97176.63
2023-02-23T13:39:49.806Z,97187.53
2023-02-23T13:42:47.610Z,97186.22
2023-02-23T13:45:44.845Z,97193.50
2023-02-23T13:48:31.097Z,97191.34
2023-02-23T13:51:05.249Z,97186.53
2023-02-23T13:53:44.675Z,97184.88
2023-02-23T13:56:22.050Z,97184.56
2023-02-23T13:58:54.038Z,97181.59
2023-02-23T14:01:26.458Z,97174.59
2023-02-23T14:04:16.122Z,97187.16
2023-02-23T14:06:54.117Z,97189.75
2023-02-23T14:09:32.875Z,97182.59
2023-02-23T14:12:29.016Z,97188.03
2023-02-23T14:14:58.920Z,97190.63
2023-02-23T14:17:39.240Z,97193.13
2023-02-23T14:20:29.672Z,97195.97
2023-02-23T14:23:46.907Z,97195.97
2023-02-23T14:26:39.136Z,97190.19
2023-02-23T14:29:27.678Z,97193.13
2023-02-23T14:31:56.405Z,97195.88
2023-02-23T14:34:43.384Z,97191.88
2023-02-23T14:37:18.691Z,97199.34
2023-02-23T14:39:59.548Z,97191.16
2023-02-23T14:42:29.897Z,97201.09
2023-02-23T14:45:14.753Z,97198.75
2023-02-23T14:48:24.194Z,97199.97
2023-02-23T14:51:40.291Z,97195.50
2023-02-23T14:54:35.319Z,97192.91
2023-02-23T14:57:20.092Z,97188.28
2023-02-23T15:00:13.206Z,97195.75
2023-02-23T15:02:54.013Z,97194.56
2023-02-23T15:05:28.048Z,97169.47
2023-02-23T15:08:31.845Z,97205.19
2023-02-23T15:11:18.617Z,97207.41
2023-02-23T15:13:51.020Z,97210.06
2023-02-23T15:16:37.198Z,97209.00
2023-02-23T15:19:11.944Z,97219.31
2023-02-23T15:21:40.694Z,97202.47
2023-02-23T15:24:29.926Z,97204.47
2023-02-23T15:27:29.501Z,97212.97
2023-02-23T15:29:57.542Z,97218.75
2023-02-23T15:32:49.947Z,97212.09
2023-02-23T15:35:29.142Z,97223.22
2023-02-23T15:38:14.134Z,97223.22
2023-02-23T15:40:48.808Z,97221.75
2023-02-23T15:43:34.843Z,97227.75
2023-02-23T15:46:29.181Z,97231.66
2023-02-23T15:49:39.217Z,97229.47
2023-02-23T15:59:49.824Z,97224.88
2023-02-23T16:07:03.411Z,97246.16
2023-02-23T16:10:25.487Z,97257.00
2023-02-23T16:13:37.745Z,97255.88
2023-02-23T16:19:29.660Z,97249.28
2023-02-23T16:22:09.235Z,97254.81
2023-02-23T16:24:51.938Z,97258.66
2023-02-23T16:46:32.226Z,97295.69
2023-02-23T16:48:59.813Z,97304.94
2023-02-23T16:51:35.050Z,97294.50
2023-02-23T16:54:13.852Z,97304.16
2023-02-23T16:56:50.964Z,97307.03
2023-02-23T17:06:07.179Z,97325.91
2023-02-23T17:08:43.370Z,97329.97
2023-02-23T17:38:15.543Z,97328.31
2023-02-23T17:47:34.711Z,97349.28
2023-02-23T17:50:04.607Z,97345.44
2023-02-23T17:53:44.996Z,97319.25
2023-02-23T17:56:12.809Z,97345.94
2023-02-23T18:02:21.707Z,97353.72
2023-02-23T18:05:15.944Z,97358.34
2023-02-23T18:12:16.536Z,97353.84
2023-02-23T18:15:11.978Z,97351.44
2023-02-23T18:21:30.152Z,97357.00
2023-02-23T18:23:57.058Z,97346.44
2023-02-23T18:27:09.534Z,97353.31
2023-02-23T18:33:10.340Z,97355.22
2023-02-23T18:35:41.022Z,97358.09
2023-02-23T18:38:17.307Z,97362.84
2023-02-23T18:41:03.851Z,97362.22
2023-02-23T18:44:00.277Z,97351.66
2023-02-23T18:50:34.348Z,97367.84
2023-02-23T18:53:05.936Z,97356.63
2023-02-23T18:59:05.359Z,97365.59
2023-02-23T19:01:50.820Z,97362.22
2023-02-23T19:04:17.615Z,97363.81
2023-02-23T19:07:23.588Z,97367.69
2023-02-23T19:17:06.194Z,97368.00
2023-02-23T19:22:38.742Z,97366.22
2023-02-23T19:25:37.826Z,97370.03
2023-02-23T19:28:16.456Z,97379.09
2023-02-23T19:30:50.215Z,97379.31
2023-02-23T19:33:20.040Z,97380.75
2023-02-23T19:35:47.045Z,97371.69
2023-02-23T19:38:26.607Z,97386.00
2023-02-23T19:41:24.130Z,97392.44
2023-02-23T19:43:50.857Z,97382.53
2023-02-23T19:46:38.189Z,97385.28
2023-02-23T19:49:22.135Z,97387.19
2023-02-23T19:51:53.552Z,97391.00
2023-02-23T19:54:36.304Z,97392.44
2023-02-23T19:57:04.445Z,97398.88
2023-02-23T19:59:37.104Z,97393.63
2023-02-23T20:02:04.459Z,97386.44
2023-02-23T20:04:53.694Z,97392.34
2023-02-23T20:07:23.717Z,97394.94
2023-02-23T20:09:53.849Z,97396.47
2023-02-23T20:22:45.339Z,97389.56
2023-02-23T20:26:06.868Z,97396.94
2023-02-23T20:28:33.927Z,97405.53
2023-02-23T20:31:30.324Z,97393.38
2023-02-23T20:35:09.214Z,97393.63
2023-02-23T20:37:48.836Z,97380.28
2023-02-23T20:41:13.558Z,97399.31
2023-02-23T20:44:30.918Z,97393.25
2023-02-23T20:51:02.851Z,97381.94
2023-02-23T20:53:33.416Z,97382.06
2023-02-23T20:56:50.477Z,97370.03
2023-02-23T20:59:52.318Z,97371.09
2023-02-23T21:02:53.599Z,97375.72
2023-02-23T21:05:24.005Z,97361.78
2023-02-23T21:08:02.324Z,97365.25
2023-02-23T21:14:11.662Z,97360.00
2023-02-23T21:17:16.317Z,97358.81
2023-02-23T21:20:36.624Z,97355.97
2023-02-23T21:23:49.898Z,97347.50
2023-02-23T21:26:52.718Z,97352.38
2023-02-23T21:29:53.601Z,97350.97
2023-02-23T21:33:11.163Z,97357.28
2023-02-23T21:39:04.352Z,97352.66
2023-02-23T21:50:09.169Z,97343.47
2023-02-23T22:34:45.577Z,97353.41
2023-02-23T23:08:40.198Z,97322.50
2023-02-23T23:21:03.179Z,97329.00
2023-02-23T23:42:30.653Z,97304.72
2023-02-23T23:45:02.449Z,97303.00
2023-02-23T23:47:39.216Z,97305.75
